Terminal Aerodrome Forecast
Issued by NWS

Home | Current Version | Previous Version | Text Only | Print | Product List | Glossary On
Versions: 1 2 3 4 5 6 7 8 9 10 11 12 13 14 15 16 17 18 19 20 21 22 23 24 25 26
216
FTUS43 KLOT 110301 AAA
TAFDPA
TAF AMD
KDPA 110301Z 1103/1124 15009KT 2SM -SN SCT015 OVC035
      TEMPO 1103/1104 1SM -SN BKN015
     FM110600 16009KT 1SM -SN BKN010 OVC020
     FM110900 16010KT 3/4SM -SN BR BKN007 OVC010
      TEMPO 1110/1114 1/2SM SN OVC006
     FM111400 15012G18KT 3/4SM -SN BR OVC007
      TEMPO 1114/1118 1/2SM SN OVC004
     FM111800 18012G18KT 3/4SM -SN BR OVC003
      TEMPO 1118/1122 1/2SM SN VV003=

USA.gov is the U.S. government's official web portal to all federal, state and local government web resources and services.